createdAt,value
2018-03-20T00:14:52.137Z,-1.4
2018-03-20T00:31:23.328Z,-1.4
2018-03-20T00:39:39.121Z,-0.8
2018-03-20T00:56:10.797Z,-0.5
2018-03-20T01:12:42.827Z,-0.5
2018-03-20T01:29:15.543Z,-0.2
2018-03-20T01:45:47.442Z,-0.2
2018-03-20T02:02:19.641Z,0.2
2018-03-20T02:18:52.743Z,0.2
2018-03-20T02:35:24.545Z,0.2
2018-03-20T02:51:57.345Z,0.5
2018-03-20T03:08:29.464Z,0.5
2018-03-20T03:25:02.012Z,0.2
2018-03-20T03:41:34.483Z,0.5
2018-03-20T03:58:09.833Z,0.8
2018-03-20T04:14:39.815Z,0.8
2018-03-20T04:31:12.602Z,1.1
2018-03-20T04:47:45.368Z,1.1
2018-03-20T05:04:18.846Z,1.1
2018-03-20T05:20:51.462Z,1.1
2018-03-20T05:37:25.197Z,1.4
2018-03-20T05:53:57.944Z,1.4
2018-03-20T06:10:31.947Z,1.8
2018-03-20T06:27:05.542Z,2.1
2018-03-20T06:43:39.853Z,2.1
2018-03-20T07:00:12.538Z,2.4
2018-03-20T07:16:46.194Z,2.4
2018-03-20T07:33:19.999Z,2.7
2018-03-20T07:49:54.342Z,2.7
2018-03-20T08:06:28.763Z,3.0
2018-03-20T08:23:04.195Z,3.4
2018-03-20T08:39:38.150Z,3.4
2018-03-20T08:52:53.869Z,4.0
2018-03-20T09:09:29.083Z,4.3
2018-03-20T09:19:25.270Z,4.6
2018-03-20T09:36:01.431Z,5.0
2018-03-20T09:52:36.902Z,5.3
2018-03-20T10:02:34.334Z,5.3
2018-03-20T10:19:09.437Z,5.6
2018-03-20T10:29:07.535Z,5.9
2018-03-20T10:45:44.132Z,6.2
2018-03-20T10:59:00.830Z,6.6
2018-03-20T11:05:40.218Z,6.6
2018-03-20T11:22:15.693Z,6.9
2018-03-20T11:38:52.627Z,7.2
2018-03-20T11:55:29.552Z,7.2
2018-03-20T12:12:06.747Z,7.5
2018-03-20T12:25:24.479Z,7.5
2018-03-20T12:42:01.767Z,7.8
2018-03-20T12:48:40.795Z,7.5
2018-03-20T13:05:18.106Z,7.8
2018-03-20T13:21:55.786Z,7.8
2018-03-20T13:38:32.731Z,7.5
2018-03-20T13:48:31.258Z,8.2
2018-03-20T13:55:10.176Z,7.8
2018-03-20T14:11:47.491Z,7.8
2018-03-20T14:28:24.754Z,7.2
2018-03-20T14:45:01.871Z,7.5
2018-03-20T14:48:21.348Z,7.5
2018-03-20T15:04:58.472Z,7.5
2018-03-20T15:11:37.415Z,7.5
2018-03-20T15:28:14.405Z,7.2
2018-03-20T15:44:51.327Z,6.9
2018-03-20T16:01:28.058Z,6.6
2018-03-20T16:18:04.676Z,6.6
2018-03-20T16:34:41.584Z,6.6
2018-03-20T16:51:17.610Z,6.2
2018-03-20T17:07:53.711Z,5.9
2018-03-20T17:24:29.633Z,5.3
2018-03-20T17:41:05.267Z,5.3
2018-03-20T17:57:40.781Z,5.0
2018-03-20T18:14:16.077Z,4.6
2018-03-20T18:30:51.703Z,4.3
2018-03-20T18:47:26.190Z,4.0
2018-03-20T19:20:35.936Z,3.7
2018-03-20T19:37:10.500Z,3.4
2018-03-20T19:53:45.360Z,3.4
2018-03-20T20:10:19.730Z,3.0
2018-03-20T20:26:53.975Z,3.0
2018-03-20T20:43:28.589Z,2.7
2018-03-20T21:00:02.604Z,2.7
2018-03-20T21:16:37.489Z,2.4
2018-03-20T21:33:12.737Z,2.1
2018-03-20T21:49:44.712Z,2.1
2018-03-20T22:06:17.818Z,2.1
2018-03-20T22:22:50.924Z,1.8
2018-03-20T22:39:23.949Z,1.8
2018-03-20T22:55:57.117Z,1.4
2018-03-20T23:12:29.930Z,1.1
2018-03-20T23:29:02.948Z,1.1
2018-03-20T23:45:35.564Z,1.1
